sensor_id;sensor_type;location;lat;lon;timestamp;P1;durP1;ratioP1;P2;durP2;ratioP2
47365;SDS011;33105;47.964;7.982;2023-02-28T00:00:14;531.87;;;92.50;;
47365;SDS011;33105;47.964;7.982;2023-02-28T00:03:15;526.50;;;91.40;;
47365;SDS011;33105;47.964;7.982;2023-02-28T00:06:16;530.80;;;91.87;;
47365;SDS011;33105;47.964;7.982;2023-02-28T00:09:18;532.23;;;92.30;;
47365;SDS011;33105;47.964;7.982;2023-02-28T00:12:19;528.37;;;92.30;;
47365;SDS011;33105;47.964;7.982;2023-02-28T00:15:20;530.93;;;92.13;;
47365;SDS011;33105;47.964;7.982;2023-02-28T00:18:23;531.07;;;92.13;;
47365;SDS011;33105;47.964;7.982;2023-02-28T00:21:24;528.27;;;92.23;;
47365;SDS011;33105;47.964;7.982;2023-02-28T00:24:25;530.77;;;92.67;;
47365;SDS011;33105;47.964;7.982;2023-02-28T00:27:27;533.27;;;91.60;;
47365;SDS011;33105;47.964;7.982;2023-02-28T00:30:28;529.70;;;92.07;;
47365;SDS011;33105;47.964;7.982;2023-02-28T00:33:29;532.53;;;94.03;;
47365;SDS011;33105;47.964;7.982;2023-02-28T00:36:30;532.93;;;92.83;;
47365;SDS011;33105;47.964;7.982;2023-02-28T00:39:33;526.27;;;91.30;;
47365;SDS011;33105;47.964;7.982;2023-02-28T00:42:35;530.50;;;92.67;;
47365;SDS011;33105;47.964;7.982;2023-02-28T00:45:37;527.40;;;91.57;;
47365;SDS011;33105;47.964;7.982;2023-02-28T00:48:38;530.33;;;93.20;;
47365;SDS011;33105;47.964;7.982;2023-02-28T00:51:40;532.13;;;92.03;;
47365;SDS011;33105;47.964;7.982;2023-02-28T00:54:41;529.27;;;92.53;;
47365;SDS011;33105;47.964;7.982;2023-02-28T00:57:42;530.33;;;92.17;;
47365;SDS011;33105;47.964;7.982;2023-02-28T01:00:44;531.30;;;93.83;;
47365;SDS011;33105;47.964;7.982;2023-02-28T01:03:49;529.33;;;92.50;;
47365;SDS011;33105;47.964;7.982;2023-02-28T01:06:50;531.63;;;92.50;;
47365;SDS011;33105;47.964;7.982;2023-02-28T01:09:52;530.60;;;92.50;;
47365;SDS011;33105;47.964;7.982;2023-02-28T01:12:53;528.87;;;92.53;;
47365;SDS011;33105;47.964;7.982;2023-02-28T01:15:55;528.47;;;92.73;;
47365;SDS011;33105;47.964;7.982;2023-02-28T01:18:57;529.10;;;92.87;;
47365;SDS011;33105;47.964;7.982;2023-02-28T01:22:03;530.67;;;92.90;;
47365;SDS011;33105;47.964;7.982;2023-02-28T01:25:05;531.67;;;94.07;;
47365;SDS011;33105;47.964;7.982;2023-02-28T01:28:07;532.07;;;93.47;;
47365;SDS011;33105;47.964;7.982;2023-02-28T01:31:09;530.33;;;94.23;;
47365;SDS011;33105;47.964;7.982;2023-02-28T01:34:12;528.97;;;91.90;;
47365;SDS011;33105;47.964;7.982;2023-02-28T01:37:13;530.03;;;92.43;;
47365;SDS011;33105;47.964;7.982;2023-02-28T01:40:18;529.77;;;92.83;;
47365;SDS011;33105;47.964;7.982;2023-02-28T01:43:26;533.57;;;94.87;;
47365;SDS011;33105;47.964;7.982;2023-02-28T01:46:30;530.60;;;93.97;;
47365;SDS011;33105;47.964;7.982;2023-02-28T01:49:33;532.73;;;93.23;;
47365;SDS011;33105;47.964;7.982;2023-02-28T01:52:35;533.73;;;93.90;;
47365;SDS011;33105;47.964;7.982;2023-02-28T01:55:36;532.63;;;94.67;;
47365;SDS011;33105;47.964;7.982;2023-02-28T01:58:39;529.70;;;92.13;;
47365;SDS011;33105;47.964;7.982;2023-02-28T02:01:40;533.43;;;94.87;;
47365;SDS011;33105;47.964;7.982;2023-02-28T02:04:46;527.43;;;92.17;;
47365;SDS011;33105;47.964;7.982;2023-02-28T02:08:08;531.47;;;94.97;;
47365;SDS011;33105;47.964;7.982;2023-02-28T02:11:12;395.55;;;69.97;;
47365;SDS011;33105;47.964;7.982;2023-02-28T02:17:25;529.70;;;94.37;;
47365;SDS011;33105;47.964;7.982;2023-02-28T02:20:51;529.77;;;93.27;;
47365;SDS011;33105;47.964;7.982;2023-02-28T02:31:33;527.53;;;93.37;;
47365;SDS011;33105;47.964;7.982;2023-02-28T02:45:02;529.90;;;93.87;;
47365;SDS011;33105;47.964;7.982;2023-02-28T02:48:10;531.27;;;93.93;;
47365;SDS011;33105;47.964;7.982;2023-02-28T02:51:16;529.63;;;93.53;;
47365;SDS011;33105;47.964;7.982;2023-02-28T02:54:28;529.23;;;93.23;;
47365;SDS011;33105;47.964;7.982;2023-02-28T02:57:45;530.63;;;95.50;;
47365;SDS011;33105;47.964;7.982;2023-02-28T03:00:53;529.87;;;93.90;;
47365;SDS011;33105;47.964;7.982;2023-02-28T03:04:03;527.10;;;93.47;;
47365;SDS011;33105;47.964;7.982;2023-02-28T03:07:07;528.33;;;94.07;;
47365;SDS011;33105;47.964;7.982;2023-02-28T03:10:29;526.97;;;92.53;;
47365;SDS011;33105;47.964;7.982;2023-02-28T03:13:41;528.07;;;93.07;;
47365;SDS011;33105;47.964;7.982;2023-02-28T03:16:57;530.00;;;95.23;;
47365;SDS011;33105;47.964;7.982;2023-02-28T03:20:21;529.80;;;94.00;;
47365;SDS011;33105;47.964;7.982;2023-02-28T03:23:59;530.63;;;95.10;;
47365;SDS011;33105;47.964;7.982;2023-02-28T03:27:27;528.97;;;93.47;;
47365;SDS011;33105;47.964;7.982;2023-02-28T03:30:51;525.50;;;91.80;;
47365;SDS011;33105;47.964;7.982;2023-02-28T03:34:04;394.15;;;69.15;;
47365;SDS011;33105;47.964;7.982;2023-02-28T03:37:10;526.70;;;92.28;;
47365;SDS011;33105;47.964;7.982;2023-02-28T03:40:17;529.03;;;92.20;;
47365;SDS011;33105;47.964;7.982;2023-02-28T03:43:24;529.00;;;94.07;;
47365;SDS011;33105;47.964;7.982;2023-02-28T03:46:31;527.23;;;92.77;;
47365;SDS011;33105;47.964;7.982;2023-02-28T03:49:39;525.53;;;92.53;;
47365;SDS011;33105;47.964;7.982;2023-02-28T03:52:55;530.57;;;94.83;;
47365;SDS011;33105;47.964;7.982;2023-02-28T03:56:06;528.37;;;94.17;;
47365;SDS011;33105;47.964;7.982;2023-02-28T03:59:27;525.60;;;93.03;;
47365;SDS011;33105;47.964;7.982;2023-02-28T04:02:34;528.43;;;92.80;;
47365;SDS011;33105;47.964;7.982;2023-02-28T04:05:45;527.60;;;93.57;;
47365;SDS011;33105;47.964;7.982;2023-02-28T04:08:55;524.78;;;92.63;;
47365;SDS011;33105;47.964;7.982;2023-02-28T04:11:56;527.80;;;93.43;;
47365;SDS011;33105;47.964;7.982;2023-02-28T04:14:57;527.17;;;93.53;;
47365;SDS011;33105;47.964;7.982;2023-02-28T04:17:58;525.90;;;93.57;;
47365;SDS011;33105;47.964;7.982;2023-02-28T04:21:00;525.23;;;93.23;;
47365;SDS011;33105;47.964;7.982;2023-02-28T04:24:01;527.20;;;94.03;;
47365;SDS011;33105;47.964;7.982;2023-02-28T04:27:03;525.27;;;92.50;;
47365;SDS011;33105;47.964;7.982;2023-02-28T04:30:04;526.10;;;92.80;;
47365;SDS011;33105;47.964;7.982;2023-02-28T04:33:06;524.37;;;92.23;;
47365;SDS011;33105;47.964;7.982;2023-02-28T04:36:08;524.93;;;93.03;;
47365;SDS011;33105;47.964;7.982;2023-02-28T04:39:09;526.07;;;93.73;;
47365;SDS011;33105;47.964;7.982;2023-02-28T04:42:11;524.77;;;92.77;;
47365;SDS011;33105;47.964;7.982;2023-02-28T04:45:13;523.60;;;92.37;;
47365;SDS011;33105;47.964;7.982;2023-02-28T04:48:14;523.53;;;91.97;;
47365;SDS011;33105;47.964;7.982;2023-02-28T04:51:17;522.13;;;91.67;;
47365;SDS011;33105;47.964;7.982;2023-02-28T04:54:20;522.43;;;91.33;;
47365;SDS011;33105;47.964;7.982;2023-02-28T04:57:21;522.23;;;90.17;;
47365;SDS011;33105;47.964;7.982;2023-02-28T05:00:22;523.43;;;90.23;;
47365;SDS011;33105;47.964;7.982;2023-02-28T05:03:24;521.60;;;90.90;;
47365;SDS011;33105;47.964;7.982;2023-02-28T05:06:26;521.57;;;92.10;;
47365;SDS011;33105;47.964;7.982;2023-02-28T05:09:29;520.60;;;91.30;;
47365;SDS011;33105;47.964;7.982;2023-02-28T05:12:30;519.73;;;91.50;;
47365;SDS011;33105;47.964;7.982;2023-02-28T05:15:31;519.97;;;91.27;;
47365;SDS011;33105;47.964;7.982;2023-02-28T05:18:32;522.17;;;91.10;;
47365;SDS011;33105;47.964;7.982;2023-02-28T05:21:35;520.00;;;90.80;;
47365;SDS011;33105;47.964;7.982;2023-02-28T05:24:40;518.10;;;90.67;;
47365;SDS011;33105;47.964;7.982;2023-02-28T05:27:43;519.23;;;90.87;;
47365;SDS011;33105;47.964;7.982;2023-02-28T05:30:44;521.07;;;90.87;;
47365;SDS011;33105;47.964;7.982;2023-02-28T05:33:45;518.90;;;90.63;;
47365;SDS011;33105;47.964;7.982;2023-02-28T05:36:46;518.87;;;90.87;;
47365;SDS011;33105;47.964;7.982;2023-02-28T05:39:48;520.43;;;90.40;;
47365;SDS011;33105;47.964;7.982;2023-02-28T05:42:52;521.43;;;92.10;;
47365;SDS011;33105;47.964;7.982;2023-02-28T05:45:53;522.40;;;91.67;;
47365;SDS011;33105;47.964;7.982;2023-02-28T05:48:55;520.43;;;90.93;;
47365;SDS011;33105;47.964;7.982;2023-02-28T05:51:58;522.13;;;91.03;;
47365;SDS011;33105;47.964;7.982;2023-02-28T05:54:59;520.00;;;90.17;;
47365;SDS011;33105;47.964;7.982;2023-02-28T05:58:02;522.17;;;92.83;;
47365;SDS011;33105;47.964;7.982;2023-02-28T06:04:24;519.10;;;90.77;;
47365;SDS011;33105;47.964;7.982;2023-02-28T06:07:25;521.60;;;91.10;;
47365;SDS011;33105;47.964;7.982;2023-02-28T06:10:27;523.03;;;92.83;;
47365;SDS011;33105;47.964;7.982;2023-02-28T06:13:28;523.77;;;92.63;;
47365;SDS011;33105;47.964;7.982;2023-02-28T06:16:30;520.80;;;91.97;;
47365;SDS011;33105;47.964;7.982;2023-02-28T06:19:33;520.07;;;91.77;;
47365;SDS011;33105;47.964;7.982;2023-02-28T06:22:35;521.97;;;93.03;;
47365;SDS011;33105;47.964;7.982;2023-02-28T06:25:37;523.33;;;92.23;;
47365;SDS011;33105;47.964;7.982;2023-02-28T06:28:39;522.13;;;92.97;;
47365;SDS011;33105;47.964;7.982;2023-02-28T06:31:41;521.67;;;91.63;;
47365;SDS011;33105;47.964;7.982;2023-02-28T06:34:42;522.40;;;92.13;;
47365;SDS011;33105;47.964;7.982;2023-02-28T06:37:43;521.20;;;91.57;;
47365;SDS011;33105;47.964;7.982;2023-02-28T06:40:52;522.00;;;90.70;;
47365;SDS011;33105;47.964;7.982;2023-02-28T06:43:54;525.05;;;93.15;;
47365;SDS011;33105;47.964;7.982;2023-02-28T06:46:56;521.33;;;90.73;;
47365;SDS011;33105;47.964;7.982;2023-02-28T06:49:57;525.67;;;93.70;;
47365;SDS011;33105;47.964;7.982;2023-02-28T06:52:58;525.43;;;93.63;;
47365;SDS011;33105;47.964;7.982;2023-02-28T06:56:03;521.43;;;91.87;;
47365;SDS011;33105;47.964;7.982;2023-02-28T06:59:06;522.73;;;93.30;;
47365;SDS011;33105;47.964;7.982;2023-02-28T07:02:07;521.80;;;92.83;;
47365;SDS011;33105;47.964;7.982;2023-02-28T07:05:09;522.67;;;93.37;;
47365;SDS011;33105;47.964;7.982;2023-02-28T07:08:10;522.27;;;91.93;;
47365;SDS011;33105;47.964;7.982;2023-02-28T07:11:12;525.40;;;94.83;;
47365;SDS011;33105;47.964;7.982;2023-02-28T07:14:13;523.27;;;92.03;;
47365;SDS011;33105;47.964;7.982;2023-02-28T07:17:14;521.73;;;91.77;;
47365;SDS011;33105;47.964;7.982;2023-02-28T07:20:16;520.13;;;92.33;;
47365;SDS011;33105;47.964;7.982;2023-02-28T07:23:17;521.47;;;91.73;;
47365;SDS011;33105;47.964;7.982;2023-02-28T07:26:19;522.90;;;92.90;;
47365;SDS011;33105;47.964;7.982;2023-02-28T07:29:21;528.57;;;94.70;;
47365;SDS011;33105;47.964;7.982;2023-02-28T07:32:22;525.10;;;93.87;;
47365;SDS011;33105;47.964;7.982;2023-02-28T07:35:24;523.90;;;93.53;;
47365;SDS011;33105;47.964;7.982;2023-02-28T07:38:25;528.63;;;95.60;;
47365;SDS011;33105;47.964;7.982;2023-02-28T07:41:26;528.00;;;96.13;;
47365;SDS011;33105;47.964;7.982;2023-02-28T07:44:28;527.23;;;94.40;;
47365;SDS011;33105;47.964;7.982;2023-02-28T07:47:29;525.57;;;95.63;;
47365;SDS011;33105;47.964;7.982;2023-02-28T07:50:31;528.03;;;97.13;;
47365;SDS011;33105;47.964;7.982;2023-02-28T07:53:33;528.03;;;95.87;;
47365;SDS011;33105;47.964;7.982;2023-02-28T07:56:34;530.27;;;97.30;;
47365;SDS011;33105;47.964;7.982;2023-02-28T07:59:35;529.30;;;97.03;;
47365;SDS011;33105;47.964;7.982;2023-02-28T08:02:37;527.17;;;94.63;;
47365;SDS011;33105;47.964;7.982;2023-02-28T08:05:39;527.93;;;96.30;;
47365;SDS011;33105;47.964;7.982;2023-02-28T08:08:40;529.37;;;97.30;;
47365;SDS011;33105;47.964;7.982;2023-02-28T08:11:42;529.90;;;96.63;;
47365;SDS011;33105;47.964;7.982;2023-02-28T08:14:44;529.20;;;94.93;;
47365;SDS011;33105;47.964;7.982;2023-02-28T08:17:45;529.47;;;96.00;;
47365;SDS011;33105;47.964;7.982;2023-02-28T08:20:46;527.53;;;96.47;;
47365;SDS011;33105;47.964;7.982;2023-02-28T08:23:48;527.73;;;96.27;;
47365;SDS011;33105;47.964;7.982;2023-02-28T08:26:51;529.67;;;95.23;;
47365;SDS011;33105;47.964;7.982;2023-02-28T08:29:52;530.23;;;97.77;;
47365;SDS011;33105;47.964;7.982;2023-02-28T08:32:53;530.50;;;96.83;;
47365;SDS011;33105;47.964;7.982;2023-02-28T08:35:56;528.47;;;95.80;;
47365;SDS011;33105;47.964;7.982;2023-02-28T08:38:57;530.60;;;97.87;;
47365;SDS011;33105;47.964;7.982;2023-02-28T08:42:00;528.17;;;96.60;;
47365;SDS011;33105;47.964;7.982;2023-02-28T08:45:01;531.93;;;97.60;;
47365;SDS011;33105;47.964;7.982;2023-02-28T08:48:03;529.27;;;97.50;;
47365;SDS011;33105;47.964;7.982;2023-02-28T08:51:06;529.33;;;96.90;;
47365;SDS011;33105;47.964;7.982;2023-02-28T08:54:10;529.20;;;96.63;;
47365;SDS011;33105;47.964;7.982;2023-02-28T08:57:13;527.97;;;96.47;;
47365;SDS011;33105;47.964;7.982;2023-02-28T09:00:15;530.20;;;96.73;;
47365;SDS011;33105;47.964;7.982;2023-02-28T09:03:16;527.93;;;96.23;;
47365;SDS011;33105;47.964;7.982;2023-02-28T09:06:18;529.53;;;97.60;;
47365;SDS011;33105;47.964;7.982;2023-02-28T09:09:20;528.53;;;95.63;;
47365;SDS011;33105;47.964;7.982;2023-02-28T09:12:26;529.87;;;97.70;;
47365;SDS011;33105;47.964;7.982;2023-02-28T09:15:28;534.53;;;98.03;;
47365;SDS011;33105;47.964;7.982;2023-02-28T09:18:29;534.23;;;98.53;;
47365;SDS011;33105;47.964;7.982;2023-02-28T09:21:31;530.57;;;97.53;;
47365;SDS011;33105;47.964;7.982;2023-02-28T09:24:32;533.37;;;99.83;;
47365;SDS011;33105;47.964;7.982;2023-02-28T09:27:33;530.03;;;98.17;;
47365;SDS011;33105;47.964;7.982;2023-02-28T09:30:34;531.27;;;96.87;;
47365;SDS011;33105;47.964;7.982;2023-02-28T09:33:35;533.03;;;98.20;;
47365;SDS011;33105;47.964;7.982;2023-02-28T09:36:37;531.23;;;99.00;;
47365;SDS011;33105;47.964;7.982;2023-02-28T09:39:38;532.03;;;97.67;;
47365;SDS011;33105;47.964;7.982;2023-02-28T09:42:39;530.63;;;99.07;;
47365;SDS011;33105;47.964;7.982;2023-02-28T09:45:42;531.60;;;97.70;;
47365;SDS011;33105;47.964;7.982;2023-02-28T09:48:48;533.93;;;99.57;;
47365;SDS011;33105;47.964;7.982;2023-02-28T09:51:59;531.83;;;98.87;;
47365;SDS011;33105;47.964;7.982;2023-02-28T09:58:41;535.77;;;100.47;;
47365;SDS011;33105;47.964;7.982;2023-02-28T10:05:07;533.90;;;98.50;;
47365;SDS011;33105;47.964;7.982;2023-02-28T10:08:16;531.07;;;98.37;;
47365;SDS011;33105;47.964;7.982;2023-02-28T10:11:26;531.67;;;95.67;;
47365;SDS011;33105;47.964;7.982;2023-02-28T10:14:28;529.93;;;96.90;;
47365;SDS011;33105;47.964;7.982;2023-02-28T10:17:36;530.00;;;97.13;;
47365;SDS011;33105;47.964;7.982;2023-02-28T10:20:41;400.45;;;73.97;;
47365;SDS011;33105;47.964;7.982;2023-02-28T10:23:44;534.03;;;99.20;;
47365;SDS011;33105;47.964;7.982;2023-02-28T10:26:48;533.20;;;99.13;;
47365;SDS011;33105;47.964;7.982;2023-02-28T10:29:55;536.40;;;99.30;;
47365;SDS011;33105;47.964;7.982;2023-02-28T10:32:58;535.93;;;100.03;;
47365;SDS011;33105;47.964;7.982;2023-02-28T10:36:00;535.07;;;101.27;;
47365;SDS011;33105;47.964;7.982;2023-02-28T10:39:21;537.97;;;101.50;;
47365;SDS011;33105;47.964;7.982;2023-02-28T10:42:38;537.43;;;100.87;;
47365;SDS011;33105;47.964;7.982;2023-02-28T10:45:51;533.90;;;100.67;;
47365;SDS011;33105;47.964;7.982;2023-02-28T10:52:08;536.77;;;101.33;;
47365;SDS011;33105;47.964;7.982;2023-02-28T10:55:15;538.03;;;101.03;;
47365;SDS011;33105;47.964;7.982;2023-02-28T10:58:26;537.03;;;100.53;;
47365;SDS011;33105;47.964;7.982;2023-02-28T11:07:37;537.93;;;102.30;;
47365;SDS011;33105;47.964;7.982;2023-02-28T11:10:43;537.93;;;101.97;;
47365;SDS011;33105;47.964;7.982;2023-02-28T11:14:02;538.43;;;101.27;;
47365;SDS011;33105;47.964;7.982;2023-02-28T11:17:19;539.90;;;101.10;;
47365;SDS011;33105;47.964;7.982;2023-02-28T11:20:23;541.40;;;101.37;;
47365;SDS011;33105;47.964;7.982;2023-02-28T11:23:28;541.27;;;105.37;;
47365;SDS011;33105;47.964;7.982;2023-02-28T11:26:38;539.40;;;102.17;;
47365;SDS011;33105;47.964;7.982;2023-02-28T11:29:46;541.13;;;103.40;;
47365;SDS011;33105;47.964;7.982;2023-02-28T11:32:48;541.30;;;102.37;;
47365;SDS011;33105;47.964;7.982;2023-02-28T11:35:50;541.70;;;103.33;;
47365;SDS011;33105;47.964;7.982;2023-02-28T11:38:54;540.37;;;103.00;;
47365;SDS011;33105;47.964;7.982;2023-02-28T11:42:15;541.50;;;104.60;;
47365;SDS011;33105;47.964;7.982;2023-02-28T11:45:37;542.03;;;102.53;;
47365;SDS011;33105;47.964;7.982;2023-02-28T11:49:04;541.77;;;104.23;;
47365;SDS011;33105;47.964;7.982;2023-02-28T11:52:33;536.00;;;100.93;;
47365;SDS011;33105;47.964;7.982;2023-02-28T11:55:37;536.83;;;102.63;;
47365;SDS011;33105;47.964;7.982;2023-02-28T11:58:55;540.00;;;101.00;;
47365;SDS011;33105;47.964;7.982;2023-02-28T12:02:26;535.93;;;100.80;;
47365;SDS011;33105;47.964;7.982;2023-02-28T12:22:16;537.93;;;102.57;;
47365;SDS011;33105;47.964;7.982;2023-02-28T12:25:38;540.10;;;103.93;;
47365;SDS011;33105;47.964;7.982;2023-02-28T12:28:53;542.37;;;103.87;;
47365;SDS011;33105;47.964;7.982;2023-02-28T12:35:25;538.63;;;101.70;;
47365;SDS011;33105;47.964;7.982;2023-02-28T12:38:53;542.60;;;105.07;;
47365;SDS011;33105;47.964;7.982;2023-02-28T12:42:03;546.50;;;106.33;;
47365;SDS011;33105;47.964;7.982;2023-02-28T12:52:09;543.53;;;106.67;;
47365;SDS011;33105;47.964;7.982;2023-02-28T12:55:19;547.00;;;107.33;;
47365;SDS011;33105;47.964;7.982;2023-02-28T12:58:31;545.10;;;107.37;;
47365;SDS011;33105;47.964;7.982;2023-02-28T13:08:03;547.93;;;108.50;;
47365;SDS011;33105;47.964;7.982;2023-02-28T13:11:32;548.63;;;107.33;;
47365;SDS011;33105;47.964;7.982;2023-02-28T13:14:39;549.37;;;113.33;;
47365;SDS011;33105;47.964;7.982;2023-02-28T13:17:41;549.97;;;110.53;;
47365;SDS011;33105;47.964;7.982;2023-02-28T13:20:47;549.93;;;111.27;;
47365;SDS011;33105;47.964;7.982;2023-02-28T13:30:49;552.63;;;112.50;;
47365;SDS011;33105;47.964;7.982;2023-02-28T13:40:32;552.40;;;116.43;;
47365;SDS011;33105;47.964;7.982;2023-02-28T13:47:22;552.73;;;115.63;;
47365;SDS011;33105;47.964;7.982;2023-02-28T13:50:33;555.23;;;120.60;;
47365;SDS011;33105;47.964;7.982;2023-02-28T13:53:46;553.55;;;115.28;;
47365;SDS011;33105;47.964;7.982;2023-02-28T13:57:04;553.07;;;116.53;;
47365;SDS011;33105;47.964;7.982;2023-02-28T14:06:50;557.13;;;119.70;;
47365;SDS011;33105;47.964;7.982;2023-02-28T14:09:59;553.90;;;117.10;;
47365;SDS011;33105;47.964;7.982;2023-02-28T14:16:43;552.73;;;117.63;;
47365;SDS011;33105;47.964;7.982;2023-02-28T14:19:46;557.40;;;118.13;;
47365;SDS011;33105;47.964;7.982;2023-02-28T14:22:55;556.70;;;118.93;;
47365;SDS011;33105;47.964;7.982;2023-02-28T14:26:10;556.05;;;120.32;;
47365;SDS011;33105;47.964;7.982;2023-02-28T14:36:35;559.73;;;122.37;;
47365;SDS011;33105;47.964;7.982;2023-02-28T14:39:40;559.63;;;120.67;;
47365;SDS011;33105;47.964;7.982;2023-02-28T14:42:46;560.27;;;120.20;;
47365;SDS011;33105;47.964;7.982;2023-02-28T14:46:00;561.00;;;120.10;;
47365;SDS011;33105;47.964;7.982;2023-02-28T14:49:11;419.08;;;87.47;;
47365;SDS011;33105;47.964;7.982;2023-02-28T14:52:22;553.83;;;116.43;;
47365;SDS011;33105;47.964;7.982;2023-02-28T14:55:34;552.43;;;118.00;;
47365;SDS011;33105;47.964;7.982;2023-02-28T14:58:36;555.43;;;116.57;;
47365;SDS011;33105;47.964;7.982;2023-02-28T15:01:37;552.07;;;114.03;;
47365;SDS011;33105;47.964;7.982;2023-02-28T15:04:39;553.43;;;114.13;;
47365;SDS011;33105;47.964;7.982;2023-02-28T15:07:46;555.80;;;120.37;;
47365;SDS011;33105;47.964;7.982;2023-02-28T15:14:01;558.40;;;117.63;;
47365;SDS011;33105;47.964;7.982;2023-02-28T15:17:05;555.73;;;119.27;;
47365;SDS011;33105;47.964;7.982;2023-02-28T15:20:13;555.67;;;118.90;;
47365;SDS011;33105;47.964;7.982;2023-02-28T15:23:17;557.83;;;117.93;;
47365;SDS011;33105;47.964;7.982;2023-02-28T15:26:22;554.77;;;116.50;;
47365;SDS011;33105;47.964;7.982;2023-02-28T15:29:29;556.60;;;114.80;;
47365;SDS011;33105;47.964;7.982;2023-02-28T15:32:34;554.93;;;117.07;;
47365;SDS011;33105;47.964;7.982;2023-02-28T15:35:37;549.47;;;112.03;;
47365;SDS011;33105;47.964;7.982;2023-02-28T15:38:39;548.50;;;110.83;;
47365;SDS011;33105;47.964;7.982;2023-02-28T15:41:40;552.03;;;114.30;;
47365;SDS011;33105;47.964;7.982;2023-02-28T15:44:41;549.83;;;112.50;;
47365;SDS011;33105;47.964;7.982;2023-02-28T15:47:44;549.47;;;112.60;;
47365;SDS011;33105;47.964;7.982;2023-02-28T15:50:47;546.43;;;109.93;;
47365;SDS011;33105;47.964;7.982;2023-02-28T15:54:14;554.57;;;112.50;;
47365;SDS011;33105;47.964;7.982;2023-02-28T15:57:26;547.07;;;110.23;;
47365;SDS011;33105;47.964;7.982;2023-02-28T16:00:30;550.77;;;111.93;;
47365;SDS011;33105;47.964;7.982;2023-02-28T16:03:43;547.20;;;109.50;;
47365;SDS011;33105;47.964;7.982;2023-02-28T16:07:00;553.60;;;110.73;;
47365;SDS011;33105;47.964;7.982;2023-02-28T16:10:04;548.77;;;111.53;;
47365;SDS011;33105;47.964;7.982;2023-02-28T16:13:08;547.87;;;110.60;;
47365;SDS011;33105;47.964;7.982;2023-02-28T16:16:17;545.97;;;109.77;;
47365;SDS011;33105;47.964;7.982;2023-02-28T16:19:19;545.63;;;109.60;;
47365;SDS011;33105;47.964;7.982;2023-02-28T16:22:21;548.87;;;110.63;;
47365;SDS011;33105;47.964;7.982;2023-02-28T16:25:24;547.23;;;109.10;;
47365;SDS011;33105;47.964;7.982;2023-02-28T16:28:35;548.77;;;107.40;;
47365;SDS011;33105;47.964;7.982;2023-02-28T16:31:38;547.03;;;109.07;;
47365;SDS011;33105;47.964;7.982;2023-02-28T16:34:40;546.67;;;108.40;;
47365;SDS011;33105;47.964;7.982;2023-02-28T16:37:41;547.73;;;109.73;;
47365;SDS011;33105;47.964;7.982;2023-02-28T16:40:42;547.93;;;108.57;;
47365;SDS011;33105;47.964;7.982;2023-02-28T16:43:44;550.70;;;108.30;;
47365;SDS011;33105;47.964;7.982;2023-02-28T16:46:48;550.47;;;108.03;;
47365;SDS011;33105;47.964;7.982;2023-02-28T16:49:49;544.87;;;107.97;;
47365;SDS011;33105;47.964;7.982;2023-02-28T16:52:50;546.47;;;107.87;;
47365;SDS011;33105;47.964;7.982;2023-02-28T16:55:55;545.13;;;105.07;;
47365;SDS011;33105;47.964;7.982;2023-02-28T16:58:58;544.53;;;106.13;;
47365;SDS011;33105;47.964;7.982;2023-02-28T17:02:01;543.73;;;106.43;;
47365;SDS011;33105;47.964;7.982;2023-02-28T17:05:02;543.27;;;104.93;;
47365;SDS011;33105;47.964;7.982;2023-02-28T17:08:04;549.63;;;106.00;;
47365;SDS011;33105;47.964;7.982;2023-02-28T17:11:06;540.97;;;104.93;;
47365;SDS011;33105;47.964;7.982;2023-02-28T17:14:07;544.93;;;108.03;;
47365;SDS011;33105;47.964;7.982;2023-02-28T17:19:09;22.65;;;14.27;;
47365;SDS011;33105;47.964;7.982;2023-02-28T17:22:12;16.02;;;11.07;;
47365;SDS011;33105;47.964;7.982;2023-02-28T17:28:57;18.75;;;12.68;;
47365;SDS011;33105;47.964;7.982;2023-02-28T17:31:59;19.08;;;12.60;;
47365;SDS011;33105;47.964;7.982;2023-02-28T17:35:00;16.63;;;11.77;;
47365;SDS011;33105;47.964;7.982;2023-02-28T17:38:02;19.25;;;12.63;;
47365;SDS011;33105;47.964;7.982;2023-02-28T17:41:04;23.15;;;14.57;;
47365;SDS011;33105;47.964;7.982;2023-02-28T17:44:05;20.70;;;13.82;;
47365;SDS011;33105;47.964;7.982;2023-02-28T17:47:09;21.95;;;14.10;;
47365;SDS011;33105;47.964;7.982;2023-02-28T17:50:14;22.58;;;14.98;;
47365;SDS011;33105;47.964;7.982;2023-02-28T17:53:20;22.55;;;15.02;;
47365;SDS011;33105;47.964;7.982;2023-02-28T17:56:24;21.88;;;14.70;;
47365;SDS011;33105;47.964;7.982;2023-02-28T17:59:27;19.87;;;12.83;;
47365;SDS011;33105;47.964;7.982;2023-02-28T18:02:34;18.42;;;12.93;;
47365;SDS011;33105;47.964;7.982;2023-02-28T18:05:35;18.08;;;12.70;;
47365;SDS011;33105;47.964;7.982;2023-02-28T18:08:37;16.95;;;11.57;;
47365;SDS011;33105;47.964;7.982;2023-02-28T18:11:39;20.70;;;12.63;;
47365;SDS011;33105;47.964;7.982;2023-02-28T18:14:44;19.00;;;12.98;;
47365;SDS011;33105;47.964;7.982;2023-02-28T18:17:48;18.88;;;12.70;;
47365;SDS011;33105;47.964;7.982;2023-02-28T18:20:50;18.83;;;11.52;;
47365;SDS011;33105;47.964;7.982;2023-02-28T18:23:54;18.23;;;11.27;;
47365;SDS011;33105;47.964;7.982;2023-02-28T18:26:55;16.80;;;11.00;;
47365;SDS011;33105;47.964;7.982;2023-02-28T18:29:57;18.20;;;12.70;;
47365;SDS011;33105;47.964;7.982;2023-02-28T18:32:59;26.50;;;12.77;;
47365;SDS011;33105;47.964;7.982;2023-02-28T18:36:02;20.77;;;13.17;;
47365;SDS011;33105;47.964;7.982;2023-02-28T18:39:07;19.90;;;13.20;;
47365;SDS011;33105;47.964;7.982;2023-02-28T18:42:08;19.77;;;13.43;;
47365;SDS011;33105;47.964;7.982;2023-02-28T18:45:10;20.60;;;13.87;;
47365;SDS011;33105;47.964;7.982;2023-02-28T18:48:13;21.00;;;13.17;;
47365;SDS011;33105;47.964;7.982;2023-02-28T18:51:17;22.57;;;13.87;;
47365;SDS011;33105;47.964;7.982;2023-02-28T18:54:20;23.03;;;13.33;;
47365;SDS011;33105;47.964;7.982;2023-02-28T18:57:21;23.70;;;14.17;;
47365;SDS011;33105;47.964;7.982;2023-02-28T19:00:22;25.30;;;14.70;;
47365;SDS011;33105;47.964;7.982;2023-02-28T19:03:25;24.57;;;14.30;;
47365;SDS011;33105;47.964;7.982;2023-02-28T19:06:28;21.33;;;13.67;;
47365;SDS011;33105;47.964;7.982;2023-02-28T19:09:32;20.53;;;14.30;;
47365;SDS011;33105;47.964;7.982;2023-02-28T19:12:34;24.40;;;13.37;;
47365;SDS011;33105;47.964;7.982;2023-02-28T19:15:37;21.67;;;13.30;;
47365;SDS011;33105;47.964;7.982;2023-02-28T19:18:39;22.17;;;13.93;;
47365;SDS011;33105;47.964;7.982;2023-02-28T19:21:41;25.53;;;13.83;;
47365;SDS011;33105;47.964;7.982;2023-02-28T19:24:43;19.80;;;14.07;;
47365;SDS011;33105;47.964;7.982;2023-02-28T19:27:45;23.83;;;14.30;;
47365;SDS011;33105;47.964;7.982;2023-02-28T19:30:47;29.60;;;15.10;;
47365;SDS011;33105;47.964;7.982;2023-02-28T19:33:51;25.47;;;14.40;;
47365;SDS011;33105;47.964;7.982;2023-02-28T19:36:52;20.57;;;13.77;;
47365;SDS011;33105;47.964;7.982;2023-02-28T19:39:54;21.53;;;14.87;;